Time;durP1;ratioP1;P1;durP2;ratioP2;P2;SDS_P1;SDS_P2;PMS_P1;PMS_P2;Temp;Humidity;BMP_temperature;BMP_pressure;BME280_temperature;BME280_humidity;BME280_pressure;Samples;Min_cycle;Max_cycle;Signal;HPM_P1;HPM_P2
2023/07/30 00:00:33;;;;;;;3.10;2.83;;;23.60;94.10;;;;;;4944832;28;20487;-72
2023/07/30 00:02:59;;;;;;;2.60;2.30;;;23.50;94.00;;;;;;4960686;28;20429;-71
2023/07/30 00:05:25;;;;;;;2.37;2.20;;;23.50;93.90;;;;;;4993990;28;20415;-72
2023/07/30 00:07:54;;;;;;;4.90;2.30;;;23.50;93.90;;;;;;4960463;28;20167;-72
2023/07/30 00:10:20;;;;;;;3.63;3.33;;;23.50;93.80;;;;;;4994048;28;20453;-72
2023/07/30 00:12:46;;;;;;;2.90;2.50;;;23.50;93.80;;;;;;4960439;28;20898;-72
2023/07/30 00:15:12;;;;;;;2.97;2.60;;;23.50;93.80;;;;;;4977086;28;20472;-72
2023/07/30 00:17:41;;;;;;;2.90;2.60;;;23.50;93.80;;;;;;4960507;28;20433;-72
2023/07/30 00:20:09;;;;;;;2.87;2.67;;;23.50;93.70;;;;;;4941155;28;20481;-72
2023/07/30 00:22:38;;;;;;;2.67;2.47;;;23.50;93.70;;;;;;4962827;28;20521;-70
2023/07/30 00:25:04;;;;;;;2.97;2.77;;;23.40;93.60;;;;;;4976460;28;20437;-72
2023/07/30 00:27:34;;;;;;;2.93;2.73;;;23.40;93.60;;;;;;4973186;28;20983;-72
2023/07/30 00:30:00;;;;;;;4.00;2.67;;;23.40;93.50;;;;;;4959253;28;20575;-72
2023/07/30 00:32:31;;;;;;;2.43;2.23;;;23.40;93.50;;;;;;4959797;28;20440;-72
2023/07/30 00:35:03;;;;;;;3.30;2.67;;;23.40;93.50;;;;;;4960622;28;20943;-72
2023/07/30 00:37:29;;;;;;;2.83;2.63;;;23.40;93.50;;;;;;4960174;28;20469;-71
2023/07/30 00:39:57;;;;;;;3.10;2.80;;;23.40;93.50;;;;;;4960435;28;20476;-72
2023/07/30 00:42:28;;;;;;;2.80;2.60;;;23.30;93.40;;;;;;4976136;28;20433;-71
2023/07/30 00:44:57;;;;;;;3.40;2.50;;;23.30;93.40;;;;;;4944231;28;20435;-72
2023/07/30 00:47:29;;;;;;;3.63;2.90;;;23.30;93.40;;;;;;4960867;28;20846;-72
2023/07/30 00:49:58;;;;;;;5.10;3.13;;;23.30;93.40;;;;;;5037502;23;20600;-74
2023/07/30 00:52:28;;;;;;;2.93;2.60;;;23.30;93.40;;;;;;5055034;28;20473;-74
2023/07/30 00:54:57;;;;;;;3.10;2.80;;;23.30;93.30;;;;;;5038972;28;20437;-74
2023/07/30 00:57:26;;;;;;;2.70;2.50;;;23.30;93.30;;;;;;5055352;28;20918;-74
2023/07/30 00:59:52;;;;;;;4.50;3.07;;;23.20;93.20;;;;;;5035322;28;20470;-73
2023/07/30 01:02:20;;;;;;;3.20;3.00;;;23.20;93.20;;;;;;5035506;28;20459;-74
2023/07/30 01:04:47;;;;;;;3.60;2.90;;;23.20;93.20;;;;;;5019095;28;21187;-73
2023/07/30 01:07:15;;;;;;;4.20;2.80;;;23.20;93.20;;;;;;5019332;28;20434;-74
2023/07/30 01:09:42;;;;;;;3.00;2.80;;;23.20;93.20;;;;;;5035600;28;20446;-73
2023/07/30 01:12:08;;;;;;;5.00;2.73;;;23.20;93.20;;;;;;5035468;28;20449;-74
2023/07/30 01:14:37;;;;;;;2.93;2.73;;;23.20;93.20;;;;;;5019094;28;20438;-73
2023/07/30 01:17:09;;;;;;;2.73;2.43;;;23.20;93.20;;;;;;5051825;28;20443;-73
2023/07/30 01:19:35;;;;;;;3.77;2.33;;;23.10;93.10;;;;;;5051613;28;20472;-73
2023/07/30 01:22:01;;;;;;;3.40;2.80;;;23.10;93.10;;;;;;5052517;28;20411;-73
2023/07/30 01:24:28;;;;;;;2.80;2.60;;;23.10;93.00;;;;;;5022460;28;20419;-73
2023/07/30 01:27:01;;;;;;;4.90;3.40;;;23.10;93.00;;;;;;5015351;28;20824;-74
2023/07/30 01:29:55;;;;;;;3.50;3.00;;;23.10;93.00;;;;;;4998922;28;20463;-73
2023/07/30 01:32:26;;;;;;;3.60;3.30;;;23.10;93.00;;;;;;5018522;28;20426;-73
2023/07/30 01:34:57;;;;;;;3.93;2.87;;;23.10;93.30;;;;;;5034621;28;20446;-73
2023/07/30 01:37:26;;;;;;;3.00;2.70;;;23.00;92.90;;;;;;5018992;28;20932;-74
2023/07/30 01:39:52;;;;;;;3.00;2.70;;;23.00;92.90;;;;;;5034680;28;20512;-73
2023/07/30 01:42:18;;;;;;;4.57;2.97;;;23.00;92.90;;;;;;5034943;28;20422;-73
2023/07/30 01:44:47;;;;;;;3.13;2.60;;;23.00;92.80;;;;;;5034762;28;20530;-73
2023/07/30 01:47:13;;;;;;;3.57;3.30;;;23.00;92.80;;;;;;5018328;28;20442;-73
2023/07/30 01:49:41;;;;;;;3.40;3.10;;;23.00;92.70;;;;;;5018092;28;21070;-73
2023/07/30 01:52:09;;;;;;;2.83;2.60;;;23.00;92.70;;;;;;5002254;28;20532;-74
2023/07/30 01:54:35;;;;;;;3.00;2.70;;;23.00;92.70;;;;;;5034664;28;20426;-73
2023/07/30 01:57:04;;;;;;;3.00;2.77;;;22.90;92.70;;;;;;5033953;28;20446;-73
2023/07/30 01:59:32;;;;;;;4.13;3.30;;;22.90;92.60;;;;;;5050937;28;20466;-73
2023/07/30 02:02:00;;;;;;;3.33;3.00;;;22.90;92.60;;;;;;5017330;28;20455;-74
2023/07/30 02:04:28;;;;;;;3.03;2.73;;;22.90;92.60;;;;;;5014491;28;20423;-73
2023/07/30 02:06:57;;;;;;;3.43;3.13;;;22.90;92.60;;;;;;5008804;28;20418;-73
2023/07/30 02:09:23;;;;;;;3.03;2.77;;;22.90;92.60;;;;;;5051166;28;20473;-73
2023/07/30 02:11:52;;;;;;;3.60;2.70;;;22.90;92.60;;;;;;5017567;28;20796;-73
2023/07/30 02:14:18;;;;;;;2.93;2.73;;;22.90;92.60;;;;;;5033755;28;21044;-73
2023/07/30 02:16:47;;;;;;;3.27;2.97;;;22.80;92.50;;;;;;5033781;28;20941;-73
2023/07/30 02:19:13;;;;;;;4.60;2.70;;;22.80;92.50;;;;;;5033768;28;20519;-73
2023/07/30 02:21:42;;;;;;;3.43;3.13;;;22.80;92.50;;;;;;5033567;28;20458;-73
2023/07/30 02:24:12;;;;;;;3.33;2.83;;;22.80;92.50;;;;;;5034298;28;20416;-74
2023/07/30 02:26:41;;;;;;;4.73;3.10;;;22.80;92.50;;;;;;5009701;28;20427;-73
2023/07/30 02:29:09;;;;;;;3.20;2.90;;;22.80;92.40;;;;;;5031530;28;20450;-73
2023/07/30 02:31:38;;;;;;;3.17;2.97;;;22.80;92.50;;;;;;5013952;28;20415;-73
2023/07/30 02:34:04;;;;;;;3.50;2.97;;;22.80;92.50;;;;;;5013605;28;20490;-73
2023/07/30 02:36:30;;;;;;;3.53;3.27;;;22.70;92.40;;;;;;5013494;28;20990;-74
2023/07/30 02:38:58;;;;;;;4.50;2.90;;;22.70;92.30;;;;;;4997439;28;20243;-74
2023/07/30 02:41:26;;;;;;;3.50;2.80;;;22.70;92.30;;;;;;4997717;28;20423;-73
2023/07/30 02:43:53;;;;;;;3.37;3.07;;;22.70;92.30;;;;;;5013388;28;20439;-74
2023/07/30 02:46:21;;;;;;;3.93;3.10;;;22.70;92.30;;;;;;5033226;28;20815;-73
2023/07/30 02:48:47;;;;;;;3.57;3.07;;;22.70;92.30;;;;;;5016647;28;20427;-73
2023/07/30 02:51:13;;;;;;;3.10;2.80;;;22.70;92.20;;;;;;5039233;28;20419;-73
2023/07/30 02:53:44;;;;;;;4.63;3.20;;;22.60;92.10;;;;;;5023041;28;20513;-74
2023/07/30 02:56:12;;;;;;;5.30;2.97;;;22.60;92.10;;;;;;5048841;28;20413;-73
2023/07/30 02:58:38;;;;;;;3.63;2.93;;;22.60;92.10;;;;;;5014538;28;20487;-74
2023/07/30 03:01:10;;;;;;;7.13;4.20;;;22.60;92.10;;;;;;5013378;28;20512;-73
2023/07/30 03:03:38;;;;;;;3.20;2.90;;;22.60;92.10;;;;;;5027762;28;20438;-73
2023/07/30 03:06:06;;;;;;;3.97;3.67;;;22.60;92.10;;;;;;5019236;28;20933;-73
2023/07/30 03:08:32;;;;;;;3.77;3.10;;;22.50;92.00;;;;;;5028115;28;20452;-73
2023/07/30 03:11:01;;;;;;;3.97;2.97;;;22.50;92.00;;;;;;5001175;28;20489;-73
2023/07/30 03:13:29;;;;;;;5.10;2.80;;;22.50;92.00;;;;;;5025681;28;20473;-73
2023/07/30 03:15:55;;;;;;;3.67;2.97;;;22.50;92.00;;;;;;5021698;28;20431;-73
2023/07/30 03:18:21;;;;;;;3.10;2.90;;;22.50;92.00;;;;;;5039405;28;20450;-73
2023/07/30 03:20:50;;;;;;;3.27;2.90;;;22.50;92.00;;;;;;5032123;28;20873;-73
2023/07/30 03:23:18;;;;;;;3.27;3.00;;;22.50;92.00;;;;;;5002039;28;20510;-73
2023/07/30 03:25:49;;;;;;;3.83;2.70;;;22.50;91.90;;;;;;5031954;28;20217;-73
2023/07/30 03:28:18;;;;;;;4.23;2.90;;;22.40;91.90;;;;;;5032634;28;20540;-73
2023/07/30 03:30:46;;;;;;;3.27;2.90;;;22.40;91.90;;;;;;5031813;28;20788;-73
2023/07/30 03:33:15;;;;;;;3.90;3.30;;;22.40;91.80;;;;;;5029519;28;20434;-73
2023/07/30 03:35:42;;;;;;;3.40;2.90;;;22.40;91.80;;;;;;5026853;28;20458;-73
2023/07/30 03:38:10;;;;;;;4.47;2.70;;;22.40;91.80;;;;;;5015935;28;20407;-73
2023/07/30 03:40:38;;;;;;;3.50;3.17;;;22.40;91.90;;;;;;5032369;28;20466;-73
2023/07/30 03:43:04;;;;;;;3.90;2.67;;;22.40;91.90;;;;;;5026855;28;20917;-74
2023/07/30 03:45:37;;;;;;;4.60;3.17;;;22.40;91.80;;;;;;5046829;28;20450;-74
2023/07/30 03:48:04;;;;;;;6.03;3.30;;;22.30;91.80;;;;;;5013439;28;20446;-73
2023/07/30 03:50:37;;;;;;;3.80;3.33;;;22.30;91.80;;;;;;5038332;28;20504;-73
2023/07/30 03:53:09;;;;;;;3.63;2.80;;;22.30;91.80;;;;;;5016213;28;20439;-73
2023/07/30 03:55:37;;;;;;;3.30;3.00;;;22.30;91.80;;;;;;5016141;28;20449;-73
2023/07/30 03:58:03;;;;;;;6.07;3.87;;;22.30;91.70;;;;;;5030243;28;20438;-74
2023/07/30 04:00:29;;;;;;;2.90;2.70;;;22.30;91.70;;;;;;5031000;28;20468;-74
2023/07/30 04:02:55;;;;;;;3.57;3.20;;;22.30;91.70;;;;;;5015334;28;20810;-74
2023/07/30 04:05:21;;;;;;;4.53;3.67;;;22.20;91.70;;;;;;4999026;28;20438;-74
2023/07/30 04:07:47;;;;;;;6.03;3.40;;;22.20;91.60;;;;;;5015328;28;20484;-74
2023/07/30 04:10:16;;;;;;;4.50;3.27;;;22.20;91.60;;;;;;5031439;28;20442;-73
2023/07/30 04:12:44;;;;;;;3.87;3.27;;;22.20;91.60;;;;;;5048775;28;20407;-74
2023/07/30 04:15:10;;;;;;;3.00;2.80;;;22.20;91.60;;;;;;5047730;28;20411;-74
2023/07/30 04:17:41;;;;;;;3.20;2.90;;;22.20;91.60;;;;;;5032079;28;20410;-74
2023/07/30 04:20:09;;;;;;;3.50;3.20;;;22.20;91.60;;;;;;4997503;28;20476;-74
2023/07/30 04:22:36;;;;;;;3.23;2.80;;;22.20;91.60;;;;;;5031654;28;20496;-74
2023/07/30 04:25:04;;;;;;;3.30;3.00;;;22.20;91.60;;;;;;5032605;28;20422;-74
2023/07/30 04:27:33;;;;;;;4.10;3.80;;;22.10;91.60;;;;;;5035628;28;20399;-74
2023/07/30 04:30:01;;;;;;;3.27;3.00;;;22.10;91.60;;;;;;5035151;28;20788;-74
2023/07/30 04:32:29;;;;;;;4.23;3.13;;;22.10;91.60;;;;;;5018682;28;20517;-74
2023/07/30 04:34:57;;;;;;;5.70;3.20;;;22.10;91.60;;;;;;5034779;28;20407;-73
2023/07/30 04:37:23;;;;;;;3.27;2.70;;;22.10;91.60;;;;;;5052656;28;20488;-74
2023/07/30 04:39:55;;;;;;;4.27;3.03;;;22.10;91.60;;;;;;5035629;28;20462;-73
2023/07/30 04:42:26;;;;;;;5.23;3.10;;;22.10;91.60;;;;;;5019343;28;20447;-74
2023/07/30 04:44:52;;;;;;;3.20;2.90;;;22.10;91.60;;;;;;5018458;28;20578;-74
2023/07/30 04:47:20;;;;;;;3.10;2.80;;;22.00;91.60;;;;;;5034865;28;20414;-74
2023/07/30 04:49:48;;;;;;;7.10;3.47;;;22.00;91.60;;;;;;5018027;28;20461;-74
2023/07/30 04:52:19;;;;;;;3.33;2.70;;;22.00;91.60;;;;;;5034488;28;20909;-74
2023/07/30 04:54:47;;;;;;;4.73;3.20;;;22.00;91.60;;;;;;5017808;28;20560;-73
2023/07/30 04:57:15;;;;;;;3.83;2.80;;;22.00;91.60;;;;;;5034570;28;20426;-74
2023/07/30 04:59:41;;;;;;;3.27;2.97;;;22.00;91.60;;;;;;5051126;28;20470;-73
2023/07/30 05:02:09;;;;;;;5.07;3.43;;;22.00;91.60;;;;;;5052897;28;20418;-74
2023/07/30 05:04:42;;;;;;;5.07;3.43;;;22.00;91.60;;;;;;5035126;28;20390;-74
2023/07/30 05:07:11;;;;;;;3.13;2.90;;;22.00;91.60;;;;;;5034986;28;21103;-73
2023/07/30 05:09:39;;;;;;;4.50;3.17;;;22.00;91.60;;;;;;5034052;28;20465;-73
2023/07/30 05:12:06;;;;;;;5.50;3.50;;;22.00;91.60;;;;;;5034106;28;20403;-73
2023/07/30 05:14:34;;;;;;;3.40;3.00;;;22.00;91.60;;;;;;5034333;28;20461;-74
2023/07/30 05:17:00;;;;;;;4.40;2.77;;;21.90;91.60;;;;;;5017867;28;20452;-73
2023/07/30 05:19:29;;;;;;;3.87;2.97;;;21.90;91.60;;;;;;5017628;28;20470;-74
2023/07/30 05:21:55;;;;;;;6.27;3.20;;;21.90;91.60;;;;;;5034378;28;20410;-74
2023/07/30 05:24:21;;;;;;;2.50;2.30;;;21.90;91.70;;;;;;5050822;28;20422;-74
2023/07/30 05:26:49;;;;;;;6.07;2.93;;;21.90;91.70;;;;;;5017589;28;20435;-74
2023/07/30 05:29:17;;;;;;;6.53;3.30;;;21.90;91.70;;;;;;5017832;28;20957;-74
2023/07/30 05:31:44;;;;;;;3.77;2.83;;;21.90;91.70;;;;;;5050510;28;20438;-73
2023/07/30 05:34:09;;;;;;;5.07;3.40;;;21.90;91.70;;;;;;5033255;28;20426;-74
2023/07/30 05:36:38;;;;;;;3.40;3.10;;;21.90;91.70;;;;;;5033159;28;20546;-74
2023/07/30 05:39:06;;;;;;;4.00;3.00;;;21.80;91.70;;;;;;5051470;28;20498;-74
2023/07/30 05:41:32;;;;;;;4.60;3.00;;;21.80;91.70;;;;;;5051563;28;20442;-74
2023/07/30 05:44:05;;;;;;;5.20;3.10;;;21.80;91.70;;;;;;5034037;28;20583;-73
2023/07/30 05:46:31;;;;;;;4.60;2.90;;;21.80;91.70;;;;;;5001173;28;20415;-73
2023/07/30 05:48:57;;;;;;;3.43;2.87;;;21.80;91.70;;;;;;5051219;28;20466;-73
2023/07/30 05:51:26;;;;;;;7.03;3.73;;;21.80;91.90;;;;;;5051319;28;20485;-73
2023/07/30 05:53:52;;;;;;;4.87;3.20;;;21.80;91.70;;;;;;5033076;28;20227;-73
2023/07/30 05:56:20;;;;;;;3.37;3.00;;;21.80;91.70;;;;;;5050804;28;20766;-73
2023/07/30 05:58:49;;;;;;;2.70;2.50;;;21.80;91.70;;;;;;5032816;28;20410;-73
2023/07/30 06:01:17;;;;;;;7.10;3.50;;;21.80;91.70;;;;;;5032724;28;20418;-73
2023/07/30 06:03:43;;;;;;;3.10;2.80;;;21.80;91.70;;;;;;5016702;28;20421;-73
2023/07/30 06:06:14;;;;;;;4.10;2.90;;;21.80;91.70;;;;;;5050673;28;20441;-73
2023/07/30 06:08:39;;;;;;;3.10;2.77;;;21.70;91.60;;;;;;5033008;28;20947;-73
2023/07/30 06:11:05;;;;;;;3.10;2.80;;;21.70;91.60;;;;;;5016544;28;20438;-73
2023/07/30 06:13:31;;;;;;;3.37;2.80;;;21.70;91.60;;;;;;5032945;28;20279;-72
2023/07/30 06:16:00;;;;;;;4.67;2.50;;;21.70;91.50;;;;;;5032987;28;20893;-73
2023/07/30 06:18:28;;;;;;;3.73;2.67;;;21.70;91.50;;;;;;5049114;28;20480;-73
2023/07/30 06:20:54;;;;;;;3.40;2.73;;;21.70;91.60;;;;;;5050685;28;20610;-73
2023/07/30 06:23:20;;;;;;;3.43;2.57;;;21.70;91.60;;;;;;5032664;28;20585;-73
2023/07/30 06:25:48;;;;;;;3.23;2.63;;;21.70;91.60;;;;;;5016551;28;20414;-73
2023/07/30 06:28:19;;;;;;;4.10;2.70;;;21.70;91.60;;;;;;5032674;28;20423;-73
2023/07/30 06:30:45;;;;;;;3.70;2.67;;;21.70;91.60;;;;;;5032860;28;20806;-73
2023/07/30 06:33:14;;;;;;;4.80;3.00;;;21.70;91.60;;;;;;5048572;28;20787;-73
2023/07/30 06:35:42;;;;;;;4.63;2.23;;;21.60;91.50;;;;;;5032440;28;20445;-73
2023/07/30 06:38:11;;;;;;;5.97;3.20;;;21.60;91.40;;;;;;5032687;28;20434;-73
2023/07/30 06:40:39;;;;;;;5.30;2.50;;;21.60;91.40;;;;;;5032607;28;20489;-73
2023/07/30 06:43:05;;;;;;;4.57;2.40;;;21.60;91.40;;;;;;5016192;28;20929;-72
2023/07/30 06:45:36;;;;;;;8.03;3.10;;;21.60;91.50;;;;;;5001867;28;20426;-74
2023/07/30 06:48:04;;;;;;;2.70;2.10;;;21.60;91.50;;;;;;5011783;28;20168;-73
2023/07/30 06:50:32;;;;;;;6.40;2.80;;;21.60;91.50;;;;;;4994332;28;20467;-73
2023/07/30 06:52:58;;;;;;;5.07;2.50;;;21.50;91.50;;;;;;4995184;28;20492;-73
2023/07/30 06:55:27;;;;;;;5.70;2.60;;;21.60;91.50;;;;;;4995138;28;20418;-73
2023/07/30 06:57:53;;;;;;;3.33;2.60;;;21.50;91.50;;;;;;4995222;28;20465;-73
2023/07/30 07:00:21;;;;;;;4.53;2.80;;;21.60;91.50;;;;;;5029018;28;20497;-73
2023/07/30 07:02:52;;;;;;;3.10;2.40;;;21.50;91.50;;;;;;4996164;28;20473;-73
2023/07/30 07:05:18;;;;;;;2.70;2.33;;;21.60;91.60;;;;;;5011944;28;20410;-73
2023/07/30 07:07:48;;;;;;;5.07;2.60;;;21.60;91.60;;;;;;5011683;28;21213;-73
2023/07/30 07:10:14;;;;;;;4.03;2.40;;;21.50;91.50;;;;;;4995648;28;20930;-73
2023/07/30 07:12:41;;;;;;;5.13;2.63;;;21.50;91.50;;;;;;5028294;28;20911;-73
2023/07/30 07:15:07;;;;;;;7.57;2.93;;;21.50;91.50;;;;;;5011704;28;20768;-73
2023/07/30 07:17:33;;;;;;;6.20;2.73;;;21.50;91.50;;;;;;5011645;28;20490;-73
2023/07/30 07:19:59;;;;;;;4.63;2.57;;;21.50;91.50;;;;;;5011486;28;20451;-73
2023/07/30 07:22:25;;;;;;;4.20;2.57;;;21.50;91.50;;;;;;4993142;28;20431;-73
2023/07/30 07:24:52;;;;;;;5.53;2.43;;;21.50;91.50;;;;;;5027767;28;20468;-72
2023/07/30 07:27:19;;;;;;;3.40;2.57;;;21.50;91.50;;;;;;5011607;28;20417;-73
2023/07/30 07:29:47;;;;;;;4.20;2.33;;;21.50;91.50;;;;;;5011142;28;20446;-74
2023/07/30 07:32:13;;;;;;;5.27;4.10;;;21.50;91.50;;;;;;4994848;28;20407;-73
2023/07/30 07:34:38;;;;;;;3.63;2.20;;;21.50;91.50;;;;;;4995348;28;20173;-73
2023/07/30 07:37:05;;;;;;;3.67;2.63;;;21.50;91.60;;;;;;5027370;28;21026;-73
2023/07/30 07:39:33;;;;;;;5.70;2.80;;;21.50;91.60;;;;;;5010978;28;20463;-75
2023/07/30 07:41:59;;;;;;;4.47;2.93;;;21.40;91.50;;;;;;5010672;28;21125;-73
2023/07/30 07:44:25;;;;;;;3.17;2.87;;;21.50;91.60;;;;;;5032215;28;20447;-76
2023/07/30 07:46:51;;;;;;;2.80;2.10;;;21.50;91.60;;;;;;5048606;28;21109;-77
2023/07/30 07:49:22;;;;;;;5.73;2.63;;;21.40;91.60;;;;;;5046810;28;20448;-76
2023/07/30 07:51:48;;;;;;;3.00;2.33;;;21.50;91.70;;;;;;5048329;28;20437;-76
2023/07/30 07:54:20;;;;;;;4.30;2.70;;;21.40;91.70;;;;;;5030880;28;20422;-76
2023/07/30 07:56:51;;;;;;;15.43;3.63;;;21.40;91.70;;;;;;5048848;28;20408;-76
2023/07/30 07:59:19;;;;;;;12.43;2.80;;;21.40;91.70;;;;;;5003348;28;20870;-75
2023/07/30 08:01:45;;;;;;;16.63;4.13;;;21.50;91.90;;;;;;5014630;28;20425;-76
2023/07/30 08:04:16;;;;;;;13.07;3.80;;;21.40;92.20;;;;;;4998866;28;20891;-76
2023/07/30 08:06:44;;;;;;;14.70;3.20;;;21.40;92.40;;;;;;4998543;28;20175;-76
2023/07/30 08:09:11;;;;;;;17.13;3.27;;;21.40;92.40;;;;;;5015150;28;20458;-76
2023/07/30 08:11:37;;;;;;;7.57;3.53;;;21.40;92.30;;;;;;5032781;28;20492;-76
2023/07/30 08:14:05;;;;;;;8.97;3.27;;;21.40;92.30;;;;;;5014732;28;20417;-76
2023/07/30 08:16:31;;;;;;;11.30;3.40;;;21.40;92.20;;;;;;5015160;28;20442;-76
2023/07/30 08:18:57;;;;;;;4.40;2.70;;;21.40;92.20;;;;;;5014838;28;20881;-76
2023/07/30 08:21:23;;;;;;;5.27;2.60;;;21.40;92.20;;;;;;4996782;28;20512;-76
2023/07/30 08:23:49;;;;;;;9.87;3.87;;;21.40;92.20;;;;;;5032123;28;20210;-76
2023/07/30 08:26:15;;;;;;;11.33;2.97;;;21.40;92.10;;;;;;5050449;28;20407;-76
2023/07/30 08:28:41;;;;;;;9.07;3.03;;;21.40;92.10;;;;;;5052028;28;20162;-76
2023/07/30 08:31:10;;;;;;;7.50;3.63;;;21.40;92.10;;;;;;5018377;28;20476;-76
2023/07/30 08:33:38;;;;;;;5.30;3.03;;;21.40;92.10;;;;;;5018197;28;20512;-76
2023/07/30 08:36:11;;;;;;;6.07;3.17;;;21.40;92.10;;;;;;5017822;28;20547;-75
2023/07/30 08:38:39;;;;;;;7.03;3.30;;;21.40;92.10;;;;;;5052542;28;20434;-76
2023/07/30 08:41:05;;;;;;;8.13;3.30;;;21.40;92.10;;;;;;5017232;28;20437;-76
2023/07/30 08:43:34;;;;;;;8.50;3.13;;;21.40;92.10;;;;;;5034111;28;20833;-76
2023/07/30 08:46:02;;;;;;;5.47;2.83;;;21.40;92.10;;;;;;5017324;28;20412;-76
2023/07/30 08:48:28;;;;;;;3.70;3.10;;;21.40;92.10;;;;;;5033840;28;20444;-76
2023/07/30 08:51:00;;;;;;;8.00;3.40;;;21.40;92.10;;;;;;5046380;28;20517;-75
2023/07/30 08:53:26;;;;;;;7.97;2.90;;;21.40;92.40;;;;;;5031583;28;20474;-75
2023/07/30 08:55:56;;;;;;;7.43;3.40;;;21.40;92.10;;;;;;5013787;28;20411;-75
2023/07/30 08:58:27;;;;;;;4.70;3.10;;;21.40;92.10;;;;;;5027241;23;20512;-87
2023/07/30 09:00:55;;;;;;;8.07;4.03;;;21.40;92.10;;;;;;5022164;28;20478;-86
2023/07/30 09:03:24;;;;;;;4.40;3.10;;;21.40;92.10;;;;;;5033834;28;20459;-88
2023/07/30 09:05:50;;;;;;;5.03;2.80;;;21.40;92.10;;;;;;5024436;28;20441;-87
2023/07/30 09:08:17;;;;;;;7.03;2.70;;;21.40;92.10;;;;;;5002539;28;20472;-88
2023/07/30 09:10:43;;;;;;;4.93;2.90;;;21.40;92.10;;;;;;5001258;28;20426;-86
2023/07/30 09:13:11;;;;;;;6.10;3.60;;;21.40;92.10;;;;;;5014967;28;20574;-87
2023/07/30 09:15:38;;;;;;;5.00;2.90;;;21.40;92.10;;;;;;5021052;28;20353;-86
2023/07/30 09:18:08;;;;;;;6.37;3.00;;;21.40;92.10;;;;;;5020725;28;20440;-87
2023/07/30 09:20:41;;;;;;;7.00;3.63;;;21.40;92.10;;;;;;5020099;28;20822;-86
2023/07/30 09:23:09;;;;;;;8.47;3.53;;;21.40;92.10;;;;;;5049911;28;20424;-87
2023/07/30 09:25:35;;;;;;;8.60;3.50;;;21.40;92.00;;;;;;5043504;28;20772;-87
2023/07/30 09:28:06;;;;;;;8.23;4.00;;;21.40;92.00;;;;;;5018250;28;20430;-87
2023/07/30 09:30:33;;;;;;;9.13;4.43;;;21.40;92.20;;;;;;5037124;28;20461;-87
2023/07/30 09:32:59;;;;;;;8.20;3.40;;;21.40;92.30;;;;;;5037088;28;20451;-87
2023/07/30 09:35:26;;;;;;;11.87;3.60;;;21.50;92.30;;;;;;5044772;28;20849;-87
2023/07/30 09:38:03;;;;;;;7.83;3.00;;;21.50;92.20;;;;;;5000471;28;20433;-87
2023/07/30 09:40:36;;;;;;;9.90;4.03;;;21.50;92.20;;;;;;5000965;28;20855;-86
2023/07/30 09:43:06;;;;;;;9.23;3.70;;;21.50;92.20;;;;;;4984780;28;20419;-87
2023/07/30 09:45:36;;;;;;;9.43;3.97;;;21.50;92.20;;;;;;5010032;28;20457;-86
2023/07/30 09:48:05;;;;;;;4.43;3.30;;;21.50;92.20;;;;;;5004316;28;20499;-86
2023/07/30 09:50:37;;;;;;;5.80;3.50;;;21.50;92.10;;;;;;5020222;28;20449;-84
2023/07/30 09:53:06;;;;;;;5.97;3.07;;;21.60;92.10;;;;;;5011870;28;20754;-87
2023/07/30 09:55:33;;;;;;;5.90;3.60;;;21.60;92.00;;;;;;5010160;28;20436;-87
2023/07/30 09:57:58;;;;;;;5.83;2.83;;;21.50;91.90;;;;;;5003499;28;20437;-87
2023/07/30 10:00:29;;;;;;;4.30;2.90;;;21.60;91.80;;;;;;5016845;28;20528;-88
2023/07/30 10:02:58;;;;;;;4.60;2.87;;;21.60;91.70;;;;;;5022809;28;20454;-86
2023/07/30 10:05:28;;;;;;;8.90;3.53;;;21.60;91.70;;;;;;5019916;28;20537;-86
2023/07/30 10:07:59;;;;;;;8.07;3.77;;;21.60;91.70;;;;;;5036251;28;20515;-89
2023/07/30 10:10:29;;;;;;;6.40;3.10;;;21.70;91.60;;;;;;5016458;28;20403;-87
2023/07/30 10:13:05;;;;;;;9.60;4.43;;;21.60;91.60;;;;;;5023254;28;20449;-89
2023/07/30 10:15:34;;;;;;;7.33;3.20;;;21.70;91.70;;;;;;5035528;28;20482;-88
2023/07/30 10:18:05;;;;;;;3.33;3.00;;;21.70;91.60;;;;;;5020357;28;20458;-88
2023/07/30 10:20:32;;;;;;;6.93;3.53;;;21.70;91.60;;;;;;5018933;28;20506;-89
2023/07/30 10:23:27;;;;;;;6.77;3.07;;;21.70;91.50;;;;;;5029173;28;20458;-89
2023/07/30 10:25:56;;;;;;;8.10;3.63;;;21.70;91.40;;;;;;5045115;28;20423;-89
2023/07/30 10:28:47;;;;;;;7.43;3.50;;;21.80;91.40;;;;;;5037636;28;20457;-89
2023/07/30 10:31:41;;;;;;;4.10;2.67;;;21.80;91.30;;;;;;5036480;28;20459;-88
2023/07/30 10:34:09;;;;;;;5.90;3.10;;;21.80;91.20;;;;;;5019058;28;20439;-87
2023/07/30 10:36:55;;;;;;;4.03;2.70;;;21.80;91.20;;;;;;5035864;28;20410;-88
2023/07/30 10:39:26;;;;;;;3.10;2.80;;;21.90;91.20;;;;;;5030745;28;20463;-88
2023/07/30 10:42:00;;;;;;;4.87;2.83;;;21.90;91.20;;;;;;5029696;28;20817;-87
2023/07/30 10:44:28;;;;;;;3.50;2.73;;;21.90;91.20;;;;;;5016414;28;20463;-89
2023/07/30 10:46:57;;;;;;;4.90;3.83;;;21.90;91.10;;;;;;5005903;28;20422;-86
2023/07/30 10:49:27;;;;;;;4.43;3.03;;;21.90;91.10;;;;;;5022818;28;20439;-90
2023/07/30 10:51:57;;;;;;;4.73;2.70;;;21.90;91.00;;;;;;4999991;28;20485;-89
2023/07/30 10:54:23;;;;;;;3.43;2.33;;;21.90;90.90;;;;;;5016330;28;20431;-90
2023/07/30 10:56:49;;;;;;;6.27;3.70;;;22.00;90.60;;;;;;4999278;28;20925;-88
2023/07/30 10:59:16;;;;;;;4.43;2.87;;;22.00;90.50;;;;;;4998956;28;20471;-86
2023/07/30 11:01:43;;;;;;;4.40;2.93;;;22.00;90.40;;;;;;5015505;28;20480;-88
2023/07/30 11:04:18;;;;;;;3.93;2.47;;;22.00;90.30;;;;;;5032390;28;20777;-87
2023/07/30 11:06:49;;;;;;;6.60;2.60;;;22.00;90.20;;;;;;4983167;28;20489;-88
2023/07/30 11:09:25;;;;;;;3.30;2.30;;;22.00;90.10;;;;;;4999533;28;20453;-89
2023/07/30 11:11:54;;;;;;;4.63;3.10;;;22.00;90.10;;;;;;5013905;28;20838;-88
2023/07/30 11:14:22;;;;;;;3.93;2.40;;;22.00;90.10;;;;;;5052285;28;20804;-89
2023/07/30 11:16:59;;;;;;;4.97;2.83;;;22.00;90.10;;;;;;5032247;28;20588;-88
2023/07/30 11:19:26;;;;;;;4.63;2.57;;;22.10;90.20;;;;;;5032670;28;20451;-87
2023/07/30 11:21:54;;;;;;;3.10;2.40;;;22.10;90.20;;;;;;4998317;28;20512;-89
2023/07/30 11:24:24;;;;;;;6.10;2.97;;;22.10;90.20;;;;;;5047453;28;20410;-88
2023/07/30 11:27:02;;;;;;;5.30;3.37;;;22.10;90.10;;;;;;5063288;23;20613;-88
2023/07/30 11:29:33;;;;;;;7.17;2.63;;;22.10;90.10;;;;;;5011696;28;20483;-86
2023/07/30 11:32:02;;;;;;;5.63;3.00;;;22.10;90.10;;;;;;5002662;28;20446;-87
2023/07/30 11:34:30;;;;;;;4.13;2.53;;;22.10;89.90;;;;;;4990696;28;20431;-87
2023/07/30 11:36:59;;;;;;;7.97;3.27;;;22.20;89.70;;;;;;5037334;28;20429;-86
2023/07/30 11:39:29;;;;;;;12.60;2.90;;;22.20;89.40;;;;;;5035112;28;20512;-87
2023/07/30 11:42:00;;;;;;;5.07;3.10;;;22.20;89.20;;;;;;5019089;28;20402;-88
2023/07/30 11:44:39;;;;;;;3.40;2.53;;;22.20;89.00;;;;;;5018363;28;20438;-87
2023/07/30 11:47:07;;;;;;;6.10;2.53;;;22.30;89.00;;;;;;5012736;28;20439;-85
2023/07/30 11:49:35;;;;;;;2.37;2.10;;;22.30;89.00;;;;;;5014793;28;21050;-87
2023/07/30 11:52:09;;;;;;;5.83;3.03;;;22.30;89.00;;;;;;5014258;28;20969;-87
2023/07/30 11:54:36;;;;;;;3.40;2.30;;;22.30;88.80;;;;;;5034185;28;20871;-85
2023/07/30 11:57:01;;;;;;;6.00;2.57;;;22.30;88.40;;;;;;5017962;28;21051;-88
2023/07/30 11:59:28;;;;;;;5.30;2.87;;;22.40;88.40;;;;;;5022226;28;20475;-87
2023/07/30 12:01:54;;;;;;;4.97;2.50;;;22.40;88.60;;;;;;4998596;28;20419;-88
2023/07/30 12:04:50;;;;;;;5.57;2.97;;;22.40;88.50;;;;;;5032172;28;20462;-88
2023/07/30 12:07:25;;;;;;;5.93;2.70;;;22.40;88.50;;;;;;5008484;28;20434;-87
2023/07/30 12:09:54;;;;;;;4.50;2.80;;;22.40;87.90;;;;;;5018896;28;20787;-87
2023/07/30 12:12:25;;;;;;;3.60;2.43;;;22.50;88.10;;;;;;5033727;28;20418;-89
2023/07/30 12:14:50;;;;;;;2.73;2.33;;;22.50;88.00;;;;;;5018234;28;20900;-88
2023/07/30 12:17:19;;;;;;;3.80;2.13;;;22.50;88.00;;;;;;5035466;28;20403;-88
2023/07/30 12:19:44;;;;;;;4.43;2.57;;;22.50;88.00;;;;;;5018136;28;20473;-87
2023/07/30 12:22:12;;;;;;;2.40;2.10;;;22.50;87.70;;;;;;5017807;28;20275;-90
2023/07/30 12:24:41;;;;;;;6.67;2.70;;;22.50;87.40;;;;;;5015165;28;20195;-89
2023/07/30 12:27:07;;;;;;;2.10;2.00;;;22.60;86.70;;;;;;5009350;28;20554;-85
2023/07/30 12:29:33;;;;;;;3.90;2.27;;;22.60;86.50;;;;;;5009375;28;20930;-89
2023/07/30 12:32:01;;;;;;;3.57;2.30;;;22.60;86.10;;;;;;5019027;28;20228;-88
2023/07/30 12:34:27;;;;;;;4.30;2.37;;;22.60;86.10;;;;;;5024043;28;20769;-90
2023/07/30 12:36:58;;;;;;;5.37;2.13;;;22.60;85.30;;;;;;5015924;28;20525;-90
2023/07/30 12:39:24;;;;;;;3.93;2.43;;;22.60;85.70;;;;;;5032531;28;20458;-89
2023/07/30 12:41:50;;;;;;;2.53;2.33;;;22.70;85.70;;;;;;5015466;28;20414;-87
2023/07/30 12:44:16;;;;;;;6.37;2.03;;;22.70;85.30;;;;;;5027910;28;20451;-88
2023/07/30 12:46:42;;;;;;;2.23;1.70;;;22.70;84.50;;;;;;5036149;28;20183;-87
2023/07/30 12:49:08;;;;;;;4.40;2.80;;;22.70;84.50;;;;;;4986374;28;20497;-87
2023/07/30 12:51:36;;;;;;;2.90;1.97;;;22.70;84.50;;;;;;5002997;28;20203;-89